Vanquish — PHCU — position and weather

sailwx.info

Track history (hours):
 
Tides and Currents Weather Stations Pressure Air Temp Water Temp Dewpoint Dewpoint Depression Visibility Wind Speed Wind Dir Waves Ship Positions

Vanquish

Last reported at 2016-Feb-06 20:33 UTC. Time now 2016-Feb-07 01:21 UTC.
Position N 51°26' W 003°01'.

MMSI: 246138952.

Date/timePositionNaut miles runAvg speedWind from/ knotsBaromVisibWave heightAir tempDewpointWater temp
2016-Feb-06 20:33N 51°26' W 003°01'1312.7
2016-Feb-06 19:34N 51°30' W 002°43'0 0.1
2016-Feb-06 18:33N 51°30' W 002°43'0 0.0
2016-Feb-06 17:33N 51°30' W 002°43'0 0.0
2016-Feb-06 16:33N 51°30' W 002°43'0 0.2
2016-Feb-06 15:32N 51°30' W 002°42'0 0.0
2016-Feb-06 14:32N 51°30' W 002°42'0 0.0
2016-Feb-06 13:32N 51°30' W 002°42'0 0.0
2016-Feb-06 12:32N 51°30' W 002°42'0 0.0
2016-Feb-06 11:32N 51°30' W 002°42'0 0.0
2016-Feb-06 10:32N 51°30' W 002°42'0 0.0
2016-Feb-06 09:32N 51°30' W 002°42'0 0.0
2016-Feb-06 08:32N 51°30' W 002°42'0 0.0
2016-Feb-06 07:32N 51°30' W 002°42'0 0.0
2016-Feb-06 06:32N 51°30' W 002°42'0 0.0
2016-Feb-06 05:32N 51°30' W 002°42'0 0.0
2016-Feb-06 04:32N 51°30' W 002°42'0 0.0
2016-Feb-06 03:32N 51°30' W 002°42'0 0.0
2016-Feb-06 02:32N 51°30' W 002°42'0 0.0
2016-Feb-06 01:32N 51°30' W 002°42'0 0.0
2016-Feb-06 00:32N 51°30' W 002°42'0 0.0
2016-Feb-05 23:32N 51°30' W 002°42'0 0.0
2016-Feb-05 22:32N 51°30' W 002°42'0 0.0
2016-Feb-05 21:32N 51°30' W 002°42'0 0.0
2016-Feb-05 20:32N 51°30' W 002°42'0 0.0
2016-Feb-05 19:32N 51°30' W 002°42'0 0.0
2016-Feb-05 18:32N 51°30' W 002°42'0 0.0
2016-Feb-05 17:32N 51°30' W 002°42'0 0.0
2016-Feb-05 16:32N 51°30' W 002°42'0 0.0
2016-Feb-05 15:32N 51°30' W 002°42'0 0.0
2016-Feb-05 14:32N 51°30' W 002°42'0 0.0
2016-Feb-05 13:32N 51°30' W 002°42'0 0.0
2016-Feb-05 12:32N 51°30' W 002°42'0 0.0
2016-Feb-05 11:32N 51°30' W 002°42'0 0.0
2016-Feb-05 10:32N 51°30' W 002°42'0 0.0
2016-Feb-05 09:32N 51°30' W 002°42'0 0.0
2016-Feb-05 08:32N 51°30' W 002°42'0 0.0
2016-Feb-05 07:32N 51°30' W 002°42'0 0.0
2016-Feb-05 06:32N 51°30' W 002°42'0 0.0
2016-Feb-05 05:32N 51°30' W 002°42'0 0.0
2016-Feb-05 04:32N 51°30' W 002°42'0 0.0
2016-Feb-05 03:32N 51°30' W 002°42'0 0.4
2016-Feb-05 02:33N 51°30' W 002°43'6 6.0
2016-Feb-05 01:33N 51°28' W 002°52'168 6.7
2016-Feb-04 00:32N 53°36' W 005°50'1110.9
2016-Feb-03 23:34N 53°46' W 005°55'1111.0
2016-Feb-03 22:34N 53°57' W 006°01'1210.9
2016-Feb-03 21:30N 54°05' W 006°14'1 0.2
2016-Feb-03 15:33N 54°06' W 006°16'9 8.9
2016-Feb-03 14:34N 54°01' W 006°03'1110.7
2016-Feb-03 13:33N 53°50' W 005°58'181 8.5
2016-Feb-02 16:19N 51°21' W 003°09'1114.4
2016-Feb-02 15:33N 51°28' W 002°55'8 7.9
2016-Feb-02 14:33N 51°30' W 002°43'0 0.2
2016-Feb-02 13:33N 51°30' W 002°42'0 0.0
2016-Feb-02 12:33N 51°30' W 002°42'0 0.0
2016-Feb-02 11:33N 51°30' W 002°42'0 0.0
2016-Feb-02 10:33N 51°30' W 002°42'0 0.0
2016-Feb-02 09:33N 51°30' W 002°42'0 0.0
2016-Feb-02 08:33N 51°30' W 002°42'0 0.0
2016-Feb-02 07:33N 51°30' W 002°42'0 0.0
2016-Feb-02 06:33N 51°30' W 002°42'0 0.0
2016-Feb-02 05:33N 51°30' W 002°42'0 0.0
2016-Feb-02 04:33N 51°30' W 002°42'0 0.0
2016-Feb-02 03:33N 51°30' W 002°42'0 0.0
2016-Feb-02 02:33N 51°30' W 002°42'0 0.0
2016-Feb-02 01:33N 51°30' W 002°42'0 0.0
2016-Feb-02 00:33N 51°30' W 002°42'0 0.0
2016-Feb-01 23:33N 51°30' W 002°42'0 0.0
2016-Feb-01 22:33N 51°30' W 002°42'0 0.0
2016-Feb-01 21:33N 51°30' W 002°42'0 0.0
2016-Feb-01 20:30N 51°30' W 002°42'0 0.0
2016-Feb-01 19:33N 51°30' W 002°42'0 0.0
2016-Feb-01 18:33N 51°30' W 002°42'0 0.0
2016-Feb-01 17:33N 51°30' W 002°42'0 0.0
2016-Feb-01 16:33N 51°30' W 002°42'0 0.0
2016-Feb-01 15:33N 51°30' W 002°42'0 0.0
2016-Feb-01 14:33N 51°30' W 002°42'0 0.0
2016-Feb-01 13:33N 51°30' W 002°42'0 0.0
2016-Feb-01 12:33N 51°30' W 002°42'0 0.0
2016-Feb-01 11:33N 51°30' W 002°42'0 0.0
2016-Feb-01 10:33N 51°30' W 002°42'0 0.0
2016-Feb-01 09:33N 51°30' W 002°42'0 0.0
2016-Feb-01 08:33N 51°30' W 002°42'0 0.0
2016-Feb-01 07:33N 51°30' W 002°42'0 0.0
2016-Feb-01 06:33N 51°30' W 002°42'0 0.0
2016-Feb-01 05:33N 51°30' W 002°42'0 0.0
2016-Feb-01 04:33N 51°30' W 002°42'0 0.0
2016-Feb-01 03:33N 51°30' W 002°42'0 0.0
2016-Feb-01 02:33N 51°30' W 002°42'0 0.0
2016-Feb-01 01:33N 51°30' W 002°42'0 0.0
2016-Feb-01 00:33N 51°30' W 002°42'0 0.0
2016-Jan-31 23:33N 51°30' W 002°42'0 0.0
2016-Jan-31 22:33N 51°30' W 002°42'0 0.0
2016-Jan-31 21:33N 51°30' W 002°42'0 0.0
2016-Jan-31 20:33N 51°30' W 002°42'0 0.0
2016-Jan-31 19:33N 51°30' W 002°42'0 0.0
2016-Jan-31 18:33N 51°30' W 002°42'0 0.0
2016-Jan-31 17:33N 51°30' W 002°42'0 0.0
2016-Jan-31 16:33N 51°30' W 002°42'0 0.0
2016-Jan-31 15:33N 51°30' W 002°42'0 0.0
2016-Jan-31 14:33N 51°30' W 002°42'0 0.0
2016-Jan-31 13:33N 51°30' W 002°42'0 0.0
2016-Jan-31 12:33N 51°30' W 002°42'0 0.0
2016-Jan-31 11:33N 51°30' W 002°42'0 0.0
2016-Jan-31 10:33N 51°30' W 002°42'0 0.0
2016-Jan-31 09:33N 51°30' W 002°42'0 0.0
2016-Jan-31 08:33N 51°30' W 002°42'0 0.0
2016-Jan-31 07:33N 51°30' W 002°42'0 0.0
2016-Jan-31 06:33N 51°30' W 002°42'0 0.0
2016-Jan-31 05:33N 51°30' W 002°42'0 0.0
2016-Jan-31 04:33N 51°30' W 002°42'0 0.0
2016-Jan-31 03:33N 51°30' W 002°42'0 0.0
2016-Jan-31 02:33N 51°30' W 002°42'0 0.0
2016-Jan-31 01:33N 51°30' W 002°42'0 0.0
2016-Jan-31 00:33N 51°30' W 002°42'0 0.3
2016-Jan-30 23:33N 51°30' W 002°43'8 7.8
2016-Jan-30 22:33N 51°28' W 002°54'173 8.6
2016-Jan-30 02:33N 53°42' W 005°54'1313.1
2016-Jan-30 01:33N 53°54' W 005°59'1111.2
2016-Jan-30 00:33N 54°03' W 006°10'8 0.2
2016-Jan-28 10:27N 53°58' W 006°00'  
Track history (hours):
 
Tides and Currents Weather Stations Pressure Air Temp Water Temp Dewpoint Dewpoint Depression Visibility Wind Speed Wind Dir Waves Ship Positions

Vanquish

Last reported at 2016-Feb-06 20:33 UTC. Time now 2016-Feb-07 01:21 UTC.
Position N 51°26' W 003°01'.

MMSI: 246138952.

Date/timePositionNaut miles runAvg speedWind from/ knotsBaromVisibWave heightAir tempDewpointWater temp
2016-Feb-06 20:33N 51°26' W 003°01'1312.7
2016-Feb-06 19:34N 51°30' W 002°43'0 0.1
2016-Feb-06 18:33N 51°30' W 002°43'0 0.0
2016-Feb-06 17:33N 51°30' W 002°43'0 0.0
2016-Feb-06 16:33N 51°30' W 002°43'0 0.2
2016-Feb-06 15:32N 51°30' W 002°42'0 0.0
2016-Feb-06 14:32N 51°30' W 002°42'0 0.0
2016-Feb-06 13:32N 51°30' W 002°42'0 0.0
2016-Feb-06 12:32N 51°30' W 002°42'0 0.0
2016-Feb-06 11:32N 51°30' W 002°42'0 0.0
2016-Feb-06 10:32N 51°30' W 002°42'0 0.0
2016-Feb-06 09:32N 51°30' W 002°42'0 0.0
2016-Feb-06 08:32N 51°30' W 002°42'0 0.0
2016-Feb-06 07:32N 51°30' W 002°42'0 0.0
2016-Feb-06 06:32N 51°30' W 002°42'0 0.0
2016-Feb-06 05:32N 51°30' W 002°42'0 0.0
2016-Feb-06 04:32N 51°30' W 002°42'0 0.0
2016-Feb-06 03:32N 51°30' W 002°42'0 0.0
2016-Feb-06 02:32N 51°30' W 002°42'0 0.0
2016-Feb-06 01:32N 51°30' W 002°42'0 0.0
2016-Feb-06 00:32N 51°30' W 002°42'0 0.0
2016-Feb-05 23:32N 51°30' W 002°42'0 0.0
2016-Feb-05 22:32N 51°30' W 002°42'0 0.0
2016-Feb-05 21:32N 51°30' W 002°42'0 0.0
2016-Feb-05 20:32N 51°30' W 002°42'0 0.0
2016-Feb-05 19:32N 51°30' W 002°42'0 0.0
2016-Feb-05 18:32N 51°30' W 002°42'0 0.0
2016-Feb-05 17:32N 51°30' W 002°42'0 0.0
2016-Feb-05 16:32N 51°30' W 002°42'0 0.0
2016-Feb-05 15:32N 51°30' W 002°42'0 0.0
2016-Feb-05 14:32N 51°30' W 002°42'0 0.0
2016-Feb-05 13:32N 51°30' W 002°42'0 0.0
2016-Feb-05 12:32N 51°30' W 002°42'0 0.0
2016-Feb-05 11:32N 51°30' W 002°42'0 0.0
2016-Feb-05 10:32N 51°30' W 002°42'0 0.0
2016-Feb-05 09:32N 51°30' W 002°42'0 0.0
2016-Feb-05 08:32N 51°30' W 002°42'0 0.0
2016-Feb-05 07:32N 51°30' W 002°42'0 0.0
2016-Feb-05 06:32N 51°30' W 002°42'0 0.0
2016-Feb-05 05:32N 51°30' W 002°42'0 0.0
2016-Feb-05 04:32N 51°30' W 002°42'0 0.0
2016-Feb-05 03:32N 51°30' W 002°42'0 0.4
2016-Feb-05 02:33N 51°30' W 002°43'6 6.0
2016-Feb-05 01:33N 51°28' W 002°52'168 6.7
2016-Feb-04 00:32N 53°36' W 005°50'1110.9
2016-Feb-03 23:34N 53°46' W 005°55'1111.0
2016-Feb-03 22:34N 53°57' W 006°01'1210.9
2016-Feb-03 21:30N 54°05' W 006°14'1 0.2
2016-Feb-03 15:33N 54°06' W 006°16'9 8.9
2016-Feb-03 14:34N 54°01' W 006°03'1110.7
2016-Feb-03 13:33N 53°50' W 005°58'181 8.5
2016-Feb-02 16:19N 51°21' W 003°09'1114.4
2016-Feb-02 15:33N 51°28' W 002°55'8 7.9
2016-Feb-02 14:33N 51°30' W 002°43'0 0.2
2016-Feb-02 13:33N 51°30' W 002°42'0 0.0
2016-Feb-02 12:33N 51°30' W 002°42'0 0.0
2016-Feb-02 11:33N 51°30' W 002°42'0 0.0
2016-Feb-02 10:33N 51°30' W 002°42'0 0.0
2016-Feb-02 09:33N 51°30' W 002°42'0 0.0
2016-Feb-02 08:33N 51°30' W 002°42'0 0.0
2016-Feb-02 07:33N 51°30' W 002°42'0 0.0
2016-Feb-02 06:33N 51°30' W 002°42'0 0.0
2016-Feb-02 05:33N 51°30' W 002°42'0 0.0
2016-Feb-02 04:33N 51°30' W 002°42'0 0.0
2016-Feb-02 03:33N 51°30' W 002°42'0 0.0
2016-Feb-02 02:33N 51°30' W 002°42'0 0.0
2016-Feb-02 01:33N 51°30' W 002°42'0 0.0
2016-Feb-02 00:33N 51°30' W 002°42'0 0.0
2016-Feb-01 23:33N 51°30' W 002°42'0 0.0
2016-Feb-01 22:33N 51°30' W 002°42'0 0.0
2016-Feb-01 21:33N 51°30' W 002°42'0 0.0
2016-Feb-01 20:30N 51°30' W 002°42'0 0.0
2016-Feb-01 19:33N 51°30' W 002°42'0 0.0
2016-Feb-01 18:33N 51°30' W 002°42'0 0.0
2016-Feb-01 17:33N 51°30' W 002°42'0 0.0
2016-Feb-01 16:33N 51°30' W 002°42'0 0.0
2016-Feb-01 15:33N 51°30' W 002°42'0 0.0
2016-Feb-01 14:33N 51°30' W 002°42'0 0.0
2016-Feb-01 13:33N 51°30' W 002°42'0 0.0
2016-Feb-01 12:33N 51°30' W 002°42'0 0.0
2016-Feb-01 11:33N 51°30' W 002°42'0 0.0
2016-Feb-01 10:33N 51°30' W 002°42'0 0.0
2016-Feb-01 09:33N 51°30' W 002°42'0 0.0
2016-Feb-01 08:33N 51°30' W 002°42'0 0.0
2016-Feb-01 07:33N 51°30' W 002°42'0 0.0
2016-Feb-01 06:33N 51°30' W 002°42'0 0.0
2016-Feb-01 05:33N 51°30' W 002°42'0 0.0
2016-Feb-01 04:33N 51°30' W 002°42'0 0.0
2016-Feb-01 03:33N 51°30' W 002°42'0 0.0
2016-Feb-01 02:33N 51°30' W 002°42'0 0.0
2016-Feb-01 01:33N 51°30' W 002°42'0 0.0
2016-Feb-01 00:33N 51°30' W 002°42'0 0.0
2016-Jan-31 23:33N 51°30' W 002°42'0 0.0
2016-Jan-31 22:33N 51°30' W 002°42'0 0.0
2016-Jan-31 21:33N 51°30' W 002°42'0 0.0
2016-Jan-31 20:33N 51°30' W 002°42'0 0.0
2016-Jan-31 19:33N 51°30' W 002°42'0 0.0
2016-Jan-31 18:33N 51°30' W 002°42'0 0.0
2016-Jan-31 17:33N 51°30' W 002°42'0 0.0
2016-Jan-31 16:33N 51°30' W 002°42'0 0.0
2016-Jan-31 15:33N 51°30' W 002°42'0 0.0
2016-Jan-31 14:33N 51°30' W 002°42'0 0.0
2016-Jan-31 13:33N 51°30' W 002°42'0 0.0
2016-Jan-31 12:33N 51°30' W 002°42'0 0.0
2016-Jan-31 11:33N 51°30' W 002°42'0 0.0
2016-Jan-31 10:33N 51°30' W 002°42'0 0.0
2016-Jan-31 09:33N 51°30' W 002°42'0 0.0
2016-Jan-31 08:33N 51°30' W 002°42'0 0.0
2016-Jan-31 07:33N 51°30' W 002°42'0 0.0
2016-Jan-31 06:33N 51°30' W 002°42'0 0.0
2016-Jan-31 05:33N 51°30' W 002°42'0 0.0
2016-Jan-31 04:33N 51°30' W 002°42'0 0.0
2016-Jan-31 03:33N 51°30' W 002°42'0 0.0
2016-Jan-31 02:33N 51°30' W 002°42'0 0.0
2016-Jan-31 01:33N 51°30' W 002°42'0 0.0
2016-Jan-31 00:33N 51°30' W 002°42'0 0.3
2016-Jan-30 23:33N 51°30' W 002°43'8 7.8
2016-Jan-30 22:33N 51°28' W 002°54'173 8.6
2016-Jan-30 02:33N 53°42' W 005°54'1313.1
2016-Jan-30 01:33N 53°54' W 005°59'1111.2
2016-Jan-30 00:33N 54°03' W 006°10'8 0.2
2016-Jan-28 10:27N 53°58' W 006°00'  

Dump ship's entire track history